Terminal Aerodrome Forecast
Issued by NWS

Current Version | Previous Version | Text Only | Print | Product List | Glossary Off
Versions: 1 2 3 4 5 6 7 8 9 10 11 12

000
FTUS44 KSJT 182325
TAFBBD
TAF
KBBD 182325Z 1900/1924 36012G20KT P6SM BKN250
     FM190200 01011KT P6SM BKN250
     FM190500 VRB03KT P6SM FEW250
     FM192100 15008KT P6SM SKC
      AMD NOT SKED=

USA.gov is the U.S. government's official web portal to all federal, state and local government web resources and services.